Sterling, IL

12:59 AM CST on December 10, 2016 (GMT -0600)
Polo | | Change Station
Active Advisory: Winter Storm Watch

Elev 663 ft 41.79 °N, 89.70 °W | Updated 56 minutes ago

Overcast
Overcast
16.5 °F
Feels Like 16 °F
N
3.0
Wind Variable Wind from West
Gusts 4.0 mph

Today
High -- | Low -- °F
--% Chance of Precip.
Yesterday
High -- | Low -- °F
Precip. -- in
Pressure 30.61 in
Visibility 10.0 miles
Clouds Few 2200 ft
Windchill 16 °F
Dew Point 13 °F
Humidity 87%
Rainfall 0.00 in
Snow Depth Not available.
7:15 AM 4:28 PM
Waxing Gibbous, 81% visible
METAR KSQI 100656Z AUTO 28006KT 10SM FEW022 M07/M10 A3053 RMK AO2 SLP363 T10721100 FZRANO
Pressure 30.61 in
Visibility 10.0 miles
Clouds Few 2200 ft
Windchill 16 °F
Dew Point 13 °F
Humidity 87%
Rainfall 0.00 in
Snow Depth Not available.
7:15 AM 4:28 PM
Waxing Gibbous, 81% visible
METAR KSQI 100656Z AUTO 28006KT 10SM FEW022 M07/M10 A3053 RMK AO2 SLP363 T10721100 FZRANO

10-Day Weather Forecast

Almanac

Astronomy

Dec. 10, 2016 Rise Set
Actual Time
Civil Twilight
Nautical Twilight
Astronomical Twilight
Moon
Length of Visible Light
Length of Day
Tomorrow will be .
, % of the Moon is Illuminated

Today's Extremes

State Highs State Lows

Community

WunderPhotos

Upload Photos

1,956,527 photos uploaded!

WunderBlog® & News

Nearby

Air Quality

  Air Quality AQ Index Pollutant
Not available.

Snow Depth

Station Depth Elevation

Earthquake Activity

City Distance Mag. Time & Date
Minimum magnitude displayed is 2.5.

Coastal Water Temperatures

Place Temperature

Stations

Nearby Weather Stations

Station Location Temp. Windchill Dew Point Humidity Wind Precip. Elev Updated Type
                   

Watches & Warnings

Winter Storm Watch
Issued: 8:38 PM CST Dec. 9, 2016 – National Weather Service

... Winter Storm Watch remains in effect from Saturday afternoon
through Sunday evening...

* timing... snow will begin Saturday evening and continue into
Sunday evening.

* Snow accumulations... 7 to 10 inches.

* Wind... southeast 5 to 10 mph with gusts up to 20 mph.

* Temperatures... in the mid 20s.

* Impacts... moderate to heavy snowfall will create slippery
travel conditions over the area... and will reduce visibility to
under 1 mile at times.

Precautionary/preparedness actions...

A Winter Storm Watch means there is a potential for significant
snow... sleet... and/or ice accumulations that would seriously
impact travel. Monitor later forecasts for updates.



DC/mm